Time;durP1;ratioP1;P1;durP2;ratioP2;P2;SDS_P1;SDS_P2;PMS_P1;PMS_P2;Temp;Humidity;BMP_temperature;BMP_pressure;BME280_temperature;BME280_humidity;BME280_pressure;Samples;Min_cycle;Max_cycle;Signal;HPM_P1;HPM_P2
2023/09/24 00:02:14;;;;;;;9.18;3.50;;;;;;;23.27;74.12;98821.16;5068448;28;20199;-61
2023/09/24 00:04:41;;;;;;;6.97;3.10;;;;;;;23.20;74.93;98820.38;5068342;28;20633;-61
2023/09/24 00:07:10;;;;;;;8.23;3.22;;;;;;;23.02;75.46;98823.53;5068404;28;20202;-62
2023/09/24 00:09:36;;;;;;;5.78;3.10;;;;;;;22.83;76.50;98833.72;5068160;28;20231;-62
2023/09/24 00:12:04;;;;;;;5.30;3.03;;;;;;;22.85;77.01;98837.91;5068396;28;20569;-61
2023/09/24 00:14:32;;;;;;;5.22;3.03;;;;;;;22.87;76.93;98823.69;5068170;28;20465;-61
2023/09/24 00:17:00;;;;;;;7.63;3.13;;;;;;;22.87;76.76;98820.28;5067664;28;20229;-61
2023/09/24 00:19:27;;;;;;;8.38;3.22;;;;;;;22.91;75.40;98826.69;5068238;28;20249;-61
2023/09/24 00:21:53;;;;;;;5.45;3.03;;;;;;;22.89;75.53;98824.28;5068134;28;20232;-61
2023/09/24 00:24:20;;;;;;;5.47;3.10;;;;;;;22.75;76.46;98833.06;5068011;28;20213;-61
2023/09/24 00:26:47;;;;;;;4.90;2.92;;;;;;;22.80;76.90;98835.88;5068281;28;20198;-61
2023/09/24 00:29:14;;;;;;;7.78;3.20;;;;;;;22.85;77.61;98835.31;5067861;28;20230;-61
2023/09/24 00:31:42;;;;;;;5.45;3.00;;;;;;;22.86;77.78;98837.69;5067867;28;20203;-62
2023/09/24 00:34:09;;;;;;;8.48;3.55;;;;;;;22.86;77.45;98844.72;5067855;28;20205;-61
2023/09/24 00:36:36;;;;;;;4.80;2.65;;;;;;;22.92;77.19;98838.72;5068203;28;20679;-61
2023/09/24 00:39:04;;;;;;;4.65;2.90;;;;;;;22.87;77.17;98835.91;5067914;28;20676;-61
2023/09/24 00:41:31;;;;;;;4.78;2.90;;;;;;;22.77;77.89;98842.28;5068122;28;20651;-62
2023/09/24 00:43:58;;;;;;;5.20;3.05;;;;;;;22.73;78.88;98845.50;5067932;28;20210;-61
2023/09/24 00:46:25;;;;;;;7.72;3.40;;;;;;;22.72;78.93;98839.47;5067968;28;20218;-61
2023/09/24 00:48:57;;;;;;;5.47;2.90;;;;;;;22.71;79.55;98835.25;5067747;28;20214;-61
2023/09/24 00:51:26;;;;;;;11.23;3.40;;;;;;;22.58;78.75;98833.41;5067876;28;20840;-61
2023/09/24 00:53:55;;;;;;;3.70;2.78;;;;;;;22.61;78.12;98842.66;5067913;28;20272;-62
2023/09/24 00:56:22;;;;;;;9.75;3.45;;;;;;;22.49;78.60;98844.19;5067801;28;20289;-61
2023/09/24 00:58:51;;;;;;;5.63;2.95;;;;;;;22.44;79.16;98841.38;5068665;28;20201;-61
2023/09/24 01:01:19;;;;;;;4.45;3.00;;;;;;;22.44;78.92;98849.19;5071476;28;20225;-61
2023/09/24 01:03:48;;;;;;;8.60;3.45;;;;;;;22.36;79.05;98856.13;5071774;28;20290;-62
2023/09/24 01:06:18;;;;;;;6.28;3.22;;;;;;;22.37;79.02;98854.38;5071434;28;20647;-61
2023/09/24 01:08:44;;;;;;;6.07;3.00;;;;;;;22.31;79.46;98848.13;5071863;28;20203;-61
2023/09/24 01:11:11;;;;;;;5.53;2.95;;;;;;;22.37;80.34;98856.97;5071335;28;20233;-61
2023/09/24 01:13:41;;;;;;;7.13;2.83;;;;;;;22.35;81.01;98844.13;5071442;28;20195;-61
2023/09/24 01:16:09;;;;;;;7.22;3.35;;;;;;;22.30;81.03;98851.69;5071378;28;20198;-61
2023/09/24 01:18:38;;;;;;;5.78;3.20;;;;;;;22.19;82.15;98839.22;5071699;28;20275;-61
2023/09/24 01:21:07;;;;;;;5.82;3.60;;;;;;;22.16;82.42;98836.97;5071387;28;20644;-61
2023/09/24 01:23:38;;;;;;;9.90;3.92;;;;;;;22.00;83.43;98834.69;5071293;28;20199;-61
2023/09/24 01:26:05;;;;;;;6.40;3.30;;;;;;;21.85;84.63;98832.97;5070773;28;20672;-61
2023/09/24 01:28:32;;;;;;;7.27;3.87;;;;;;;21.75;85.66;98835.09;5071054;28;20203;-61
2023/09/24 01:30:59;;;;;;;6.20;3.20;;;;;;;21.70;85.95;98830.47;5071180;28;20233;-61
2023/09/24 01:33:26;;;;;;;6.33;3.47;;;;;;;21.65;85.91;98832.03;5071017;28;20198;-61
2023/09/24 01:35:53;;;;;;;6.47;3.25;;;;;;;21.51;86.84;98825.09;5071015;28;20266;-62
2023/09/24 01:38:20;;;;;;;11.90;3.60;;;;;;;21.44;87.67;98820.66;5070970;28;20226;-61
2023/09/24 01:40:51;;;;;;;6.73;3.63;;;;;;;21.36;88.49;98820.78;5071065;28;20260;-61
2023/09/24 01:43:18;;;;;;;4.27;2.70;;;;;;;21.32;89.34;98827.31;5071280;28;20209;-61
2023/09/24 01:45:47;;;;;;;6.43;3.67;;;;;;;21.17;90.56;98818.75;5071011;28;20209;-61
2023/09/24 01:48:15;;;;;;;6.40;3.17;;;;;;;21.09;92.19;98824.91;5070683;28;20236;-61
2023/09/24 01:50:43;;;;;;;5.43;3.60;;;;;;;21.07;93.21;98823.47;5070716;28;20229;-61
2023/09/24 01:53:10;;;;;;;8.00;3.87;;;;;;;21.01;93.77;98823.22;5071081;28;20729;-61
2023/09/24 01:55:38;;;;;;;7.43;3.33;;;;;;;20.97;94.47;98824.59;5070702;28;20211;-61
2023/09/24 01:58:06;;;;;;;8.90;4.07;;;;;;;20.94;95.43;98830.16;5070627;28;20251;-61
2023/09/24 02:00:33;;;;;;;8.37;3.73;;;;;;;20.94;96.32;98830.16;5070564;28;20215;-61
2023/09/24 02:03:06;;;;;;;12.70;3.97;;;;;;;20.82;97.53;98833.41;5070444;28;20260;-61
2023/09/24 02:05:33;;;;;;;12.93;3.87;;;;;;;20.84;99.56;98834.81;5070526;28;20240;-61
2023/09/24 02:08:00;;;;;;;8.73;3.73;;;;;;;20.86;99.97;98843.25;5070391;28;20205;-61
2023/09/24 02:10:27;;;;;;;8.03;3.77;;;;;;;20.88;100.00;98833.47;5070126;28;20232;-61
2023/09/24 02:12:54;;;;;;;8.70;3.63;;;;;;;20.88;100.00;98825.66;5070297;28;20690;-61
2023/09/24 02:15:23;;;;;;;8.90;3.63;;;;;;;20.81;100.00;98824.81;5070170;28;20257;-61
2023/09/24 02:17:50;;;;;;;9.73;3.87;;;;;;;20.79;100.00;98818.97;5070386;28;20290;-61
2023/09/24 02:20:25;;;;;;;10.13;3.93;;;;;;;20.70;100.00;98818.28;5070033;28;20679;-62
2023/09/24 02:22:57;;;;;;;13.00;3.67;;;;;;;20.70;100.00;98822.66;5069078;28;20693;-62
2023/09/24 02:56:07;;;;;;;7.60;4.20;;;;;;;21.03;100.00;98807.44;5126046;27;20558;-61
2023/09/24 02:58:34;;;;;;;9.90;4.40;;;;;;;20.82;100.00;98805.63;5126196;28;20204;-61
2023/09/24 03:01:02;;;;;;;6.30;3.90;;;;;;;20.64;100.00;98807.81;5126236;28;20399;-61
2023/09/24 03:03:29;;;;;;;6.13;3.37;;;;;;;20.51;100.00;98806.66;5126199;28;20207;-62
2023/09/24 03:05:56;;;;;;;6.83;4.03;;;;;;;20.39;100.00;98808.09;5123408;28;20202;-62
2023/09/24 03:08:23;;;;;;;10.10;4.43;;;;;;;20.33;100.00;98803.59;5105402;28;20265;-62
2023/09/24 03:10:51;;;;;;;5.13;3.30;;;;;;;20.27;100.00;98801.72;5105426;28;20208;-62
2023/09/24 03:13:20;;;;;;;5.87;3.37;;;;;;;20.16;100.00;98800.41;5105107;28;20380;-62
2023/09/24 03:15:48;;;;;;;4.87;3.57;;;;;;;20.12;100.00;98805.13;5105660;28;20303;-62
2023/09/24 03:18:15;;;;;;;6.53;3.73;;;;;;;20.08;100.00;98809.09;5105038;28;20757;-62
2023/09/24 03:20:44;;;;;;;7.23;3.77;;;;;;;20.02;100.00;98806.41;5105251;28;20584;-61
2023/09/24 03:23:12;;;;;;;5.13;3.67;;;;;;;20.04;100.00;98812.19;5104918;28;20200;-62
2023/09/24 03:25:40;;;;;;;6.13;3.20;;;;;;;20.01;100.00;98818.59;5105287;28;20684;-61
2023/09/24 03:28:06;;;;;;;4.90;3.13;;;;;;;20.02;100.00;98820.19;5105154;28;20199;-62
2023/09/24 03:30:35;;;;;;;5.80;3.90;;;;;;;19.97;100.00;98827.69;5105542;28;20205;-62
2023/09/24 03:33:03;;;;;;;8.50;3.47;;;;;;;20.02;100.00;98827.97;5104921;28;20206;-61
2023/09/24 03:35:30;;;;;;;7.23;3.80;;;;;;;19.99;100.00;98835.31;5104934;28;20738;-62
2023/09/24 03:37:59;;;;;;;5.97;4.00;;;;;;;19.94;100.00;98828.03;5104941;28;20228;-62
2023/09/24 03:40:27;;;;;;;5.90;3.73;;;;;;;19.86;100.00;98822.94;5104413;28;20211;-62
2023/09/24 03:42:54;;;;;;;5.70;3.53;;;;;;;19.83;100.00;98823.28;5104889;28;20207;-62
2023/09/24 03:45:23;;;;;;;7.57;3.30;;;;;;;19.79;100.00;98833.22;5104931;28;20201;-62
2023/09/24 03:47:52;;;;;;;5.63;3.80;;;;;;;19.80;100.00;98832.22;5104704;28;20237;-62
2023/09/24 03:50:19;;;;;;;6.40;3.47;;;;;;;19.84;100.00;98832.69;5104703;28;20675;-61
2023/09/24 03:52:48;;;;;;;6.17;4.00;;;;;;;19.76;100.00;98835.34;5104660;28;20558;-62
2023/09/24 03:55:15;;;;;;;7.47;4.07;;;;;;;19.68;100.00;98831.84;5100806;28;20234;-62
2023/09/24 03:57:42;;;;;;;6.13;3.70;;;;;;;19.66;100.00;98835.59;5090958;28;20196;-62
2023/09/24 04:00:15;;;;;;;5.17;3.57;;;;;;;19.65;100.00;98836.59;5090963;28;20256;-62
2023/09/24 04:02:43;;;;;;;6.73;3.97;;;;;;;19.63;100.00;98836.75;5090914;28;20624;-62
2023/09/24 04:05:14;;;;;;;6.73;3.97;;;;;;;19.59;100.00;98830.28;5090839;28;20210;-62
2023/09/24 04:07:42;;;;;;;4.93;3.67;;;;;;;19.50;100.00;98836.50;5090816;28;20225;-62
2023/09/24 04:10:14;;;;;;;6.27;3.90;;;;;;;19.47;100.00;98831.69;5090958;28;20207;-62
2023/09/24 04:12:41;;;;;;;9.07;3.70;;;;;;;19.50;100.00;98839.09;5090622;28;20279;-62
2023/09/24 04:15:09;;;;;;;5.37;3.60;;;;;;;19.48;100.00;98848.84;5090608;28;20229;-61
2023/09/24 04:17:36;;;;;;;6.50;3.40;;;;;;;19.47;100.00;98851.63;5090671;28;20227;-62
2023/09/24 04:20:06;;;;;;;6.60;3.80;;;;;;;19.49;100.00;98853.06;5090603;28;20250;-62
2023/09/24 04:22:34;;;;;;;5.27;3.50;;;;;;;19.48;100.00;98859.22;5090576;28;20206;-62
2023/09/24 04:25:01;;;;;;;7.73;3.83;;;;;;;19.55;100.00;98854.94;5090462;28;20253;-62
2023/09/24 04:27:27;;;;;;;6.30;3.60;;;;;;;19.64;100.00;98853.09;5090627;28;20230;-62
2023/09/24 04:29:54;;;;;;;8.63;3.60;;;;;;;19.60;100.00;98855.22;5089896;28;20769;-62
2023/09/24 04:32:21;;;;;;;6.10;4.07;;;;;;;19.57;100.00;98850.38;5090335;28;20206;-62
2023/09/24 04:34:48;;;;;;;4.77;3.43;;;;;;;19.57;100.00;98860.75;5090146;28;20324;-62
2023/09/24 04:37:16;;;;;;;5.23;3.70;;;;;;;19.63;100.00;98852.31;5090161;28;20753;-62
2023/09/24 04:39:46;;;;;;;7.13;4.03;;;;;;;19.62;100.00;98855.84;5090189;28;20597;-62
2023/09/24 04:42:14;;;;;;;5.07;3.80;;;;;;;19.62;100.00;98847.28;5089921;28;20202;-62
2023/09/24 04:44:41;;;;;;;6.23;3.53;;;;;;;19.61;100.00;98849.06;5089663;28;20704;-62
2023/09/24 04:47:08;;;;;;;5.20;3.50;;;;;;;19.62;100.00;98849.88;5089938;28;20226;-62
2023/09/24 04:49:35;;;;;;;5.60;3.93;;;;;;;19.66;100.00;98854.56;5089993;28;20201;-62
2023/09/24 04:52:02;;;;;;;5.80;3.80;;;;;;;19.65;100.00;98865.91;5089963;28;20717;-62
2023/09/24 04:54:29;;;;;;;5.97;4.00;;;;;;;19.68;100.00;98890.69;5101517;28;20234;-62
2023/09/24 04:56:57;;;;;;;7.20;4.63;;;;;;;19.72;100.00;98893.75;5110244;28;20206;-62
2023/09/24 04:59:24;;;;;;;7.50;3.53;;;;;;;19.87;100.00;98910.97;5110538;28;20203;-62
2023/09/24 05:01:51;;;;;;;7.70;3.93;;;;;;;19.86;100.00;98914.53;5102894;28;20196;-62
2023/09/24 05:04:20;;;;;;;6.57;4.30;;;;;;;20.10;100.00;98890.19;5089624;28;20199;-61
2023/09/24 05:06:47;;;;;;;6.90;3.87;;;;;;;20.19;100.00;98884.88;5089183;28;20216;-62
2023/09/24 05:09:14;;;;;;;6.43;3.97;;;;;;;20.21;100.00;98888.13;5089127;28;20204;-62
2023/09/24 05:11:41;;;;;;;8.27;4.10;;;;;;;20.31;100.00;98902.47;5095141;28;20669;-62
2023/09/24 05:14:09;;;;;;;6.47;3.70;;;;;;;20.44;100.00;98906.22;5098479;28;20198;-62
2023/09/24 05:16:36;;;;;;;6.73;4.10;;;;;;;20.55;100.00;98917.00;5099078;28;20193;-62
2023/09/24 05:19:03;;;;;;;5.87;3.80;;;;;;;20.61;100.00;98917.28;5099792;28;20239;-62
2023/09/24 05:21:30;;;;;;;7.00;4.13;;;;;;;20.80;100.00;98924.53;5098910;28;20208;-62
2023/09/24 05:23:57;;;;;;;4.93;3.73;;;;;;;20.96;100.00;98913.94;5098503;28;20205;-62
2023/09/24 05:26:24;;;;;;;7.83;3.77;;;;;;;21.11;100.00;98915.69;5099776;28;20629;-62
2023/09/24 05:28:51;;;;;;;5.90;3.90;;;;;;;21.21;100.00;98918.81;5097383;28;20198;-61
2023/09/24 05:31:19;;;;;;;6.07;3.50;;;;;;;21.36;100.00;98927.41;5088978;28;20232;-62
2023/09/24 05:33:47;;;;;;;6.37;3.83;;;;;;;21.56;100.00;98924.22;5089105;28;20243;-61
2023/09/24 05:36:14;;;;;;;9.50;4.17;;;;;;;21.75;100.00;98915.75;5088773;28;20229;-62
2023/09/24 05:38:41;;;;;;;6.40;3.60;;;;;;;21.89;100.00;98922.69;5088880;28;20599;-62
2023/09/24 05:41:07;;;;;;;8.97;3.87;;;;;;;22.00;100.00;98923.19;5088933;28;20205;-61
2023/09/24 05:43:35;;;;;;;5.53;3.60;;;;;;;22.10;100.00;98918.44;5088987;28;20210;-61
2023/09/24 05:46:02;;;;;;;7.90;3.67;;;;;;;22.27;100.00;98919.00;5088813;28;20300;-61
2023/09/24 05:48:30;;;;;;;5.40;3.77;;;;;;;22.40;100.00;98929.53;5088819;28;20201;-61
2023/09/24 05:50:57;;;;;;;6.57;3.67;;;;;;;22.46;100.00;98939.19;5088675;28;20198;-61
2023/09/24 05:53:24;;;;;;;6.28;4.07;;;;;;;22.63;100.00;98939.69;5088461;28;20676;-61
2023/09/24 05:55:54;;;;;;;6.97;3.72;;;;;;;22.77;100.00;98943.94;5088957;28;20222;-61
2023/09/24 05:58:21;;;;;;;5.78;4.05;;;;;;;22.80;100.00;98948.75;5088431;28;20201;-62
2023/09/24 06:00:50;;;;;;;7.07;4.40;;;;;;;23.06;100.00;98955.13;5088595;28;20610;-62
2023/09/24 06:03:17;;;;;;;8.60;4.13;;;;;;;23.18;100.00;98953.56;5088479;28;20254;-62
2023/09/24 06:05:45;;;;;;;7.95;4.10;;;;;;;23.35;100.00;98971.50;5088420;28;20202;-62
2023/09/24 06:08:12;;;;;;;6.40;3.90;;;;;;;23.52;100.00;98980.56;5088342;28;20206;-62
2023/09/24 06:10:44;;;;;;;7.35;4.32;;;;;;;23.71;100.00;98979.84;5087463;28;20682;-62
2023/09/24 06:13:11;;;;;;;7.90;4.20;;;;;;;23.94;100.00;98983.91;5086169;28;20687;-63
2023/09/24 06:15:38;;;;;;;6.07;3.90;;;;;;;24.18;100.00;98965.00;5087561;28;20328;-63
2023/09/24 06:18:05;;;;;;;36.90;14.90;;;;;;;24.42;97.33;98975.03;5088014;28;20634;-65
2023/09/24 06:20:32;;;;;;;9.73;4.70;;;;;;;24.48;97.39;98982.91;5087179;28;20258;-65
2023/09/24 06:23:00;;;;;;;7.25;3.85;;;;;;;24.58;96.01;98991.13;5088442;28;20201;-64
2023/09/24 06:25:27;;;;;;;7.90;4.03;;;;;;;24.77;97.78;98993.91;5088078;28;20204;-65
2023/09/24 06:27:54;;;;;;;5.45;3.70;;;;;;;24.92;94.57;98986.63;5088267;28;20735;-63
2023/09/24 06:30:21;;;;;;;6.35;4.00;;;;;;;25.08;96.93;98999.25;5088798;28;20550;-65
2023/09/24 06:32:48;;;;;;;6.88;4.00;;;;;;;25.21;93.80;98998.41;5108435;28;20577;-66
2023/09/24 06:35:14;;;;;;;6.63;3.88;;;;;;;25.37;90.56;98998.97;5098678;28;20232;-64
2023/09/24 06:37:41;;;;;;;5.07;3.40;;;;;;;25.44;91.56;98994.50;5096657;28;20201;-65
2023/09/24 06:40:11;;;;;;;10.98;5.95;;;;;;;25.45;89.53;98989.06;5098431;28;20190;-63
2023/09/24 06:42:38;;;;;;;81.60;32.75;;;;;;;25.61;89.25;98994.81;5097079;28;20441;-66
2023/09/24 06:45:08;;;;;;;19.55;9.82;;;;;;;25.65;86.97;99007.25;5097185;28;20197;-64
2023/09/24 06:47:35;;;;;;;11.93;5.25;;;;;;;25.74;86.44;99006.00;5098304;28;20237;-63
2023/09/24 06:50:02;;;;;;;8.00;4.20;;;;;;;25.89;87.57;99003.13;5099873;28;20651;-65
